sensor_id;sensor_type;location;lat;lon;timestamp;temperature;humidity
74540;SHT31;66042;51.090;-115.340;2023-07-20T00:01:51;34.88;21.03
74540;SHT31;66042;51.090;-115.340;2023-07-20T00:04:17;34.58;21.53
74540;SHT31;66042;51.090;-115.340;2023-07-20T00:06:45;34.88;21.77
74540;SHT31;66042;51.090;-115.340;2023-07-20T00:09:12;35.97;21.37
74540;SHT31;66042;51.090;-115.340;2023-07-20T00:11:39;36.86;19.90
74540;SHT31;66042;51.090;-115.340;2023-07-20T00:14:06;36.72;20.05
74540;SHT31;66042;51.090;-115.340;2023-07-20T00:16:32;37.20;19.74
74540;SHT31;66042;51.090;-115.340;2023-07-20T00:18:59;37.57;19.78
74540;SHT31;66042;51.090;-115.340;2023-07-20T00:21:26;37.83;19.84
74540;SHT31;66042;51.090;-115.340;2023-07-20T00:23:53;37.24;20.03
74540;SHT31;66042;51.090;-115.340;2023-07-20T00:26:20;36.50;20.49
74540;SHT31;66042;51.090;-115.340;2023-07-20T00:28:48;36.99;20.28
74540;SHT31;66042;51.090;-115.340;2023-07-20T00:31:19;36.53;20.13
74540;SHT31;66042;51.090;-115.340;2023-07-20T00:33:46;36.03;20.24
74540;SHT31;66042;51.090;-115.340;2023-07-20T00:36:13;35.90;20.18
74540;SHT31;66042;51.090;-115.340;2023-07-20T00:38:41;37.01;19.99
74540;SHT31;66042;51.090;-115.340;2023-07-20T00:41:08;37.64;19.58
74540;SHT31;66042;51.090;-115.340;2023-07-20T00:43:35;36.84;19.80
74540;SHT31;66042;51.090;-115.340;2023-07-20T00:46:02;36.07;20.11
74540;SHT31;66042;51.090;-115.340;2023-07-20T00:48:29;35.70;20.59
74540;SHT31;66042;51.090;-115.340;2023-07-20T00:50:58;35.54;21.08
74540;SHT31;66042;51.090;-115.340;2023-07-20T00:53:27;35.84;21.14
74540;SHT31;66042;51.090;-115.340;2023-07-20T00:55:54;36.00;20.85
74540;SHT31;66042;51.090;-115.340;2023-07-20T00:58:22;35.50;21.08
74540;SHT31;66042;51.090;-115.340;2023-07-20T01:00:49;34.95;21.82
74540;SHT31;66042;51.090;-115.340;2023-07-20T01:03:17;34.55;22.19
74540;SHT31;66042;51.090;-115.340;2023-07-20T01:05:54;34.16;22.33
74540;SHT31;66042;51.090;-115.340;2023-07-20T01:08:38;33.75;22.73
74540;SHT31;66042;51.090;-115.340;2023-07-20T01:11:42;33.45;23.11
74540;SHT31;66042;51.090;-115.340;2023-07-20T01:14:29;33.13;23.18
74540;SHT31;66042;51.090;-115.340;2023-07-20T01:16:57;32.71;23.50
74540;SHT31;66042;51.090;-115.340;2023-07-20T01:19:24;32.43;24.39
74540;SHT31;66042;51.090;-115.340;2023-07-20T01:22:09;32.35;24.57
74540;SHT31;66042;51.090;-115.340;2023-07-20T01:33:50;31.95;24.53
74540;SHT31;66042;51.090;-115.340;2023-07-20T01:36:24;32.03;24.92
74540;SHT31;66042;51.090;-115.340;2023-07-20T01:38:53;32.50;24.85
74540;SHT31;66042;51.090;-115.340;2023-07-20T01:41:22;33.25;23.91
74540;SHT31;66042;51.090;-115.340;2023-07-20T01:43:49;33.50;23.76
74540;SHT31;66042;51.090;-115.340;2023-07-20T01:46:16;33.75;23.48
74540;SHT31;66042;51.090;-115.340;2023-07-20T01:48:44;34.02;23.26
74540;SHT31;66042;51.090;-115.340;2023-07-20T01:51:11;33.93;23.28
74540;SHT31;66042;51.090;-115.340;2023-07-20T01:53:38;33.50;23.84
74540;SHT31;66042;51.090;-115.340;2023-07-20T01:56:04;33.09;23.83
74540;SHT31;66042;51.090;-115.340;2023-07-20T01:58:31;32.58;24.23
74540;SHT31;66042;51.090;-115.340;2023-07-20T02:00:58;32.20;24.70
74540;SHT31;66042;51.090;-115.340;2023-07-20T02:03:24;31.79;25.04
74540;SHT31;66042;51.090;-115.340;2023-07-20T02:05:52;31.26;25.43
74540;SHT31;66042;51.090;-115.340;2023-07-20T02:08:19;30.87;25.91
74540;SHT31;66042;51.090;-115.340;2023-07-20T02:10:47;30.55;26.41
74540;SHT31;66042;51.090;-115.340;2023-07-20T02:13:14;30.20;26.64
74540;SHT31;66042;51.090;-115.340;2023-07-20T02:15:41;29.79;26.98
74540;SHT31;66042;51.090;-115.340;2023-07-20T02:18:09;29.44;27.60
74540;SHT31;66042;51.090;-115.340;2023-07-20T02:20:36;29.13;27.95
74540;SHT31;66042;51.090;-115.340;2023-07-20T02:23:03;28.84;28.30
74540;SHT31;66042;51.090;-115.340;2023-07-20T02:25:30;28.56;28.73
74540;SHT31;66042;51.090;-115.340;2023-07-20T02:27:57;28.27;29.00
74540;SHT31;66042;51.090;-115.340;2023-07-20T02:30:24;28.01;29.42
74540;SHT31;66042;51.090;-115.340;2023-07-20T02:32:52;27.83;29.76
74540;SHT31;66042;51.090;-115.340;2023-07-20T02:35:19;27.67;30.06
74540;SHT31;66042;51.090;-115.340;2023-07-20T02:37:46;27.51;30.53
74540;SHT31;66042;51.090;-115.340;2023-07-20T02:40:13;27.31;30.81
74540;SHT31;66042;51.090;-115.340;2023-07-20T02:42:40;27.11;31.08
74540;SHT31;66042;51.090;-115.340;2023-07-20T02:45:06;26.92;31.30
74540;SHT31;66042;51.090;-115.340;2023-07-20T02:47:34;26.76;31.63
74540;SHT31;66042;51.090;-115.340;2023-07-20T02:50:00;26.55;31.94
74540;SHT31;66042;51.090;-115.340;2023-07-20T02:52:28;26.37;32.37
74540;SHT31;66042;51.090;-115.340;2023-07-20T02:54:55;26.20;32.71
74540;SHT31;66042;51.090;-115.340;2023-07-20T02:57:22;26.03;32.83
74540;SHT31;66042;51.090;-115.340;2023-07-20T02:59:48;25.92;33.07
74540;SHT31;66042;51.090;-115.340;2023-07-20T03:02:15;25.80;33.28
74540;SHT31;66042;51.090;-115.340;2023-07-20T03:04:42;25.63;33.46
74540;SHT31;66042;51.090;-115.340;2023-07-20T03:07:09;25.51;33.75
74540;SHT31;66042;51.090;-115.340;2023-07-20T03:09:36;25.30;34.19
74540;SHT31;66042;51.090;-115.340;2023-07-20T03:12:03;25.12;34.32
74540;SHT31;66042;51.090;-115.340;2023-07-20T03:14:30;24.98;34.57
74540;SHT31;66042;51.090;-115.340;2023-07-20T03:16:57;24.82;34.83
74540;SHT31;66042;51.090;-115.340;2023-07-20T03:19:24;24.65;35.09
74540;SHT31;66042;51.090;-115.340;2023-07-20T03:21:51;24.54;35.39
74540;SHT31;66042;51.090;-115.340;2023-07-20T03:24:17;24.44;35.49
74540;SHT31;66042;51.090;-115.340;2023-07-20T03:26:44;24.33;35.71
74540;SHT31;66042;51.090;-115.340;2023-07-20T03:29:12;24.24;35.89
74540;SHT31;66042;51.090;-115.340;2023-07-20T03:31:39;24.16;36.08
74540;SHT31;66042;51.090;-115.340;2023-07-20T03:34:06;24.06;36.40
74540;SHT31;66042;51.090;-115.340;2023-07-20T03:36:34;23.97;36.50
74540;SHT31;66042;51.090;-115.340;2023-07-20T03:39:01;23.89;36.70
74540;SHT31;66042;51.090;-115.340;2023-07-20T03:41:28;23.78;36.85
74540;SHT31;66042;51.090;-115.340;2023-07-20T03:43:55;23.64;37.12
74540;SHT31;66042;51.090;-115.340;2023-07-20T03:46:23;23.52;37.33
74540;SHT31;66042;51.090;-115.340;2023-07-20T03:48:50;23.44;37.49
74540;SHT31;66042;51.090;-115.340;2023-07-20T03:51:17;23.33;37.76
74540;SHT31;66042;51.090;-115.340;2023-07-20T03:53:44;23.19;38.07
74540;SHT31;66042;51.090;-115.340;2023-07-20T03:56:11;23.04;38.43
74540;SHT31;66042;51.090;-115.340;2023-07-20T03:58:37;22.88;38.75
74540;SHT31;66042;51.090;-115.340;2023-07-20T04:01:04;22.78;38.78
74540;SHT31;66042;51.090;-115.340;2023-07-20T04:03:32;22.73;38.89
74540;SHT31;66042;51.090;-115.340;2023-07-20T04:05:59;22.70;39.11
74540;SHT31;66042;51.090;-115.340;2023-07-20T04:08:26;22.61;39.31
74540;SHT31;66042;51.090;-115.340;2023-07-20T04:10:53;22.56;39.37
74540;SHT31;66042;51.090;-115.340;2023-07-20T04:13:21;22.49;39.56
74540;SHT31;66042;51.090;-115.340;2023-07-20T04:15:48;22.43;39.68
74540;SHT31;66042;51.090;-115.340;2023-07-20T04:18:15;22.34;40.26
74540;SHT31;66042;51.090;-115.340;2023-07-20T04:20:42;22.24;40.59
74540;SHT31;66042;51.090;-115.340;2023-07-20T04:23:09;22.13;40.80
74540;SHT31;66042;51.090;-115.340;2023-07-20T04:25:38;21.99;41.27
74540;SHT31;66042;51.090;-115.340;2023-07-20T04:28:06;21.88;41.38
74540;SHT31;66042;51.090;-115.340;2023-07-20T04:30:37;21.84;41.56
74540;SHT31;66042;51.090;-115.340;2023-07-20T04:33:06;21.73;41.79
74540;SHT31;66042;51.090;-115.340;2023-07-20T04:35:46;21.68;41.62
74540;SHT31;66042;51.090;-115.340;2023-07-20T04:38:20;21.61;41.89
74540;SHT31;66042;51.090;-115.340;2023-07-20T04:40:48;21.55;41.98
74540;SHT31;66042;51.090;-115.340;2023-07-20T04:43:16;21.47;42.21
74540;SHT31;66042;51.090;-115.340;2023-07-20T04:45:44;21.39;42.18
74540;SHT31;66042;51.090;-115.340;2023-07-20T04:48:12;21.31;42.33
74540;SHT31;66042;51.090;-115.340;2023-07-20T04:50:41;21.23;42.61
74540;SHT31;66042;51.090;-115.340;2023-07-20T04:53:10;21.16;42.85
74540;SHT31;66042;51.090;-115.340;2023-07-20T04:55:40;21.09;42.87
74540;SHT31;66042;51.090;-115.340;2023-07-20T04:58:18;21.03;43.02
74540;SHT31;66042;51.090;-115.340;2023-07-20T05:00:49;20.96;43.10
74540;SHT31;66042;51.090;-115.340;2023-07-20T05:03:18;20.89;43.57
74540;SHT31;66042;51.090;-115.340;2023-07-20T05:05:46;20.80;43.76
74540;SHT31;66042;51.090;-115.340;2023-07-20T05:08:13;20.72;43.93
74540;SHT31;66042;51.090;-115.340;2023-07-20T05:10:41;20.66;43.92
74540;SHT31;66042;51.090;-115.340;2023-07-20T05:13:08;20.58;44.29
74540;SHT31;66042;51.090;-115.340;2023-07-20T05:15:36;20.47;44.43
74540;SHT31;66042;51.090;-115.340;2023-07-20T05:18:03;20.41;44.63
74540;SHT31;66042;51.090;-115.340;2023-07-20T05:20:30;20.37;44.69
74540;SHT31;66042;51.090;-115.340;2023-07-20T05:22:59;20.33;44.89
74540;SHT31;66042;51.090;-115.340;2023-07-20T05:25:26;20.25;45.31
74540;SHT31;66042;51.090;-115.340;2023-07-20T05:27:54;20.14;45.61
74540;SHT31;66042;51.090;-115.340;2023-07-20T05:30:21;20.08;45.66
74540;SHT31;66042;51.090;-115.340;2023-07-20T05:32:48;20.03;45.68
74540;SHT31;66042;51.090;-115.340;2023-07-20T05:35:17;19.95;46.00
74540;SHT31;66042;51.090;-115.340;2023-07-20T05:37:45;19.88;46.22
74540;SHT31;66042;51.090;-115.340;2023-07-20T05:40:12;19.80;46.33
74540;SHT31;66042;51.090;-115.340;2023-07-20T05:42:44;19.73;46.49
74540;SHT31;66042;51.090;-115.340;2023-07-20T05:45:13;19.69;46.42
74540;SHT31;66042;51.090;-115.340;2023-07-20T05:47:44;19.65;46.54
74540;SHT31;66042;51.090;-115.340;2023-07-20T05:50:12;19.59;46.63
74540;SHT31;66042;51.090;-115.340;2023-07-20T05:52:39;19.54;46.62
74540;SHT31;66042;51.090;-115.340;2023-07-20T05:55:07;19.50;46.81
74540;SHT31;66042;51.090;-115.340;2023-07-20T05:57:34;19.43;47.13
74540;SHT31;66042;51.090;-115.340;2023-07-20T06:00:02;19.37;47.18
74540;SHT31;66042;51.090;-115.340;2023-07-20T06:02:29;19.32;47.34
74540;SHT31;66042;51.090;-115.340;2023-07-20T06:04:58;19.25;47.59
74540;SHT31;66042;51.090;-115.340;2023-07-20T06:07:25;19.18;47.75
74540;SHT31;66042;51.090;-115.340;2023-07-20T06:09:52;19.12;47.89
74540;SHT31;66042;51.090;-115.340;2023-07-20T06:12:19;19.06;48.14
74540;SHT31;66042;51.090;-115.340;2023-07-20T06:14:46;18.99;48.39
74540;SHT31;66042;51.090;-115.340;2023-07-20T06:17:13;18.91;48.50
74540;SHT31;66042;51.090;-115.340;2023-07-20T06:19:40;18.87;48.56
74540;SHT31;66042;51.090;-115.340;2023-07-20T06:22:08;18.81;48.73
74540;SHT31;66042;51.090;-115.340;2023-07-20T06:24:35;18.75;48.97
74540;SHT31;66042;51.090;-115.340;2023-07-20T06:27:02;18.70;49.24
74540;SHT31;66042;51.090;-115.340;2023-07-20T06:29:31;18.59;50.07
74540;SHT31;66042;51.090;-115.340;2023-07-20T06:31:58;18.35;50.62
74540;SHT31;66042;51.090;-115.340;2023-07-20T06:34:25;18.30;50.43
74540;SHT31;66042;51.090;-115.340;2023-07-20T06:36:52;18.28;50.48
74540;SHT31;66042;51.090;-115.340;2023-07-20T06:39:19;18.20;50.75
74540;SHT31;66042;51.090;-115.340;2023-07-20T06:41:47;18.12;51.05
74540;SHT31;66042;51.090;-115.340;2023-07-20T06:44:14;17.97;51.26
74540;SHT31;66042;51.090;-115.340;2023-07-20T06:46:41;17.93;51.11
74540;SHT31;66042;51.090;-115.340;2023-07-20T06:49:08;17.92;51.23
74540;SHT31;66042;51.090;-115.340;2023-07-20T06:51:35;17.83;51.68
74540;SHT31;66042;51.090;-115.340;2023-07-20T06:54:02;17.71;51.88
74540;SHT31;66042;51.090;-115.340;2023-07-20T06:56:30;17.67;51.91
74540;SHT31;66042;51.090;-115.340;2023-07-20T06:58:56;17.57;52.22
74540;SHT31;66042;51.090;-115.340;2023-07-20T07:01:24;17.48;52.19
74540;SHT31;66042;51.090;-115.340;2023-07-20T07:03:51;17.37;52.81
74540;SHT31;66042;51.090;-115.340;2023-07-20T07:06:18;17.28;52.73
74540;SHT31;66042;51.090;-115.340;2023-07-20T07:08:46;17.28;52.73
74540;SHT31;66042;51.090;-115.340;2023-07-20T07:11:13;17.26;52.60
74540;SHT31;66042;51.090;-115.340;2023-07-20T07:13:40;17.26;52.73
74540;SHT31;66042;51.090;-115.340;2023-07-20T07:16:07;17.20;53.11
74540;SHT31;66042;51.090;-115.340;2023-07-20T07:18:34;17.11;53.27
74540;SHT31;66042;51.090;-115.340;2023-07-20T07:21:01;17.08;53.35
74540;SHT31;66042;51.090;-115.340;2023-07-20T07:23:28;17.06;53.37
74540;SHT31;66042;51.090;-115.340;2023-07-20T07:25:55;17.03;53.35
74540;SHT31;66042;51.090;-115.340;2023-07-20T07:28:22;17.00;53.52
74540;SHT31;66042;51.090;-115.340;2023-07-20T07:30:49;16.96;53.61
74540;SHT31;66042;51.090;-115.340;2023-07-20T07:33:17;16.95;53.69
74540;SHT31;66042;51.090;-115.340;2023-07-20T07:35:43;16.92;53.71
74540;SHT31;66042;51.090;-115.340;2023-07-20T07:38:11;16.83;54.10
74540;SHT31;66042;51.090;-115.340;2023-07-20T07:40:37;16.76;54.04
74540;SHT31;66042;51.090;-115.340;2023-07-20T07:43:05;16.75;53.99
74540;SHT31;66042;51.090;-115.340;2023-07-20T07:45:34;16.73;54.16
74540;SHT31;66042;51.090;-115.340;2023-07-20T07:48:04;16.65;54.55
74540;SHT31;66042;51.090;-115.340;2023-07-20T07:50:31;16.61;54.38
74540;SHT31;66042;51.090;-115.340;2023-07-20T07:52:59;16.60;54.38
74540;SHT31;66042;51.090;-115.340;2023-07-20T07:55:26;16.56;54.61
74540;SHT31;66042;51.090;-115.340;2023-07-20T07:57:53;16.46;54.99
74540;SHT31;66042;51.090;-115.340;2023-07-20T08:00:20;16.38;55.12
74540;SHT31;66042;51.090;-115.340;2023-07-20T08:02:49;16.34;55.13
74540;SHT31;66042;51.090;-115.340;2023-07-20T08:05:17;16.31;55.20
74540;SHT31;66042;51.090;-115.340;2023-07-20T08:07:43;16.29;55.37
74540;SHT31;66042;51.090;-115.340;2023-07-20T08:10:10;16.26;55.38
74540;SHT31;66042;51.090;-115.340;2023-07-20T08:12:38;16.26;55.30
74540;SHT31;66042;51.090;-115.340;2023-07-20T08:15:05;16.25;55.39
74540;SHT31;66042;51.090;-115.340;2023-07-20T08:17:32;16.22;55.51
74540;SHT31;66042;51.090;-115.340;2023-07-20T08:20:00;16.20;55.51
74540;SHT31;66042;51.090;-115.340;2023-07-20T08:22:27;16.16;55.60
74540;SHT31;66042;51.090;-115.340;2023-07-20T08:24:55;16.11;55.74
74540;SHT31;66042;51.090;-115.340;2023-07-20T08:27:22;16.04;55.93
74540;SHT31;66042;51.090;-115.340;2023-07-20T08:29:49;15.99;55.92
74540;SHT31;66042;51.090;-115.340;2023-07-20T08:32:16;15.96;56.07
74540;SHT31;66042;51.090;-115.340;2023-07-20T08:34:43;15.90;56.18
74540;SHT31;66042;51.090;-115.340;2023-07-20T08:37:11;15.88;56.22
74540;SHT31;66042;51.090;-115.340;2023-07-20T08:39:38;15.81;56.62
74540;SHT31;66042;51.090;-115.340;2023-07-20T08:42:05;15.71;56.64
74540;SHT31;66042;51.090;-115.340;2023-07-20T08:44:33;15.69;56.68
74540;SHT31;66042;51.090;-115.340;2023-07-20T08:47:01;15.67;56.72
74540;SHT31;66042;51.090;-115.340;2023-07-20T08:49:32;15.64;56.85
74540;SHT31;66042;51.090;-115.340;2023-07-20T08:52:01;15.60;56.95
74540;SHT31;66042;51.090;-115.340;2023-07-20T08:54:30;15.52;57.34
74540;SHT31;66042;51.090;-115.340;2023-07-20T08:57:04;15.50;57.31
74540;SHT31;66042;51.090;-115.340;2023-07-20T08:59:33;15.47;57.49
74540;SHT31;66042;51.090;-115.340;2023-07-20T09:02:04;15.44;57.63
74540;SHT31;66042;51.090;-115.340;2023-07-20T09:04:36;15.41;57.85
74540;SHT31;66042;51.090;-115.340;2023-07-20T09:07:03;15.37;57.78
74540;SHT31;66042;51.090;-115.340;2023-07-20T09:09:31;15.36;57.68
74540;SHT31;66042;51.090;-115.340;2023-07-20T09:11:57;15.35;57.62
74540;SHT31;66042;51.090;-115.340;2023-07-20T09:14:24;15.33;57.69
74540;SHT31;66042;51.090;-115.340;2023-07-20T09:16:55;15.28;57.95
74540;SHT31;66042;51.090;-115.340;2023-07-20T09:19:22;15.23;58.05
74540;SHT31;66042;51.090;-115.340;2023-07-20T09:21:50;15.20;58.23
74540;SHT31;66042;51.090;-115.340;2023-07-20T09:24:18;15.15;58.39
74540;SHT31;66042;51.090;-115.340;2023-07-20T09:26:47;15.13;58.16
74540;SHT31;66042;51.090;-115.340;2023-07-20T09:29:19;15.14;58.08
74540;SHT31;66042;51.090;-115.340;2023-07-20T09:31:58;15.15;58.07
74540;SHT31;66042;51.090;-115.340;2023-07-20T09:34:30;15.14;58.11
74540;SHT31;66042;51.090;-115.340;2023-07-20T09:37:00;15.14;58.25
74540;SHT31;66042;51.090;-115.340;2023-07-20T09:39:28;15.11;58.41
74540;SHT31;66042;51.090;-115.340;2023-07-20T09:41:59;15.03;58.62
74540;SHT31;66042;51.090;-115.340;2023-07-20T09:44:27;15.01;58.58
74540;SHT31;66042;51.090;-115.340;2023-07-20T09:46:54;14.95;58.73
74540;SHT31;66042;51.090;-115.340;2023-07-20T09:49:21;14.93;58.68
74540;SHT31;66042;51.090;-115.340;2023-07-20T09:51:49;14.93;58.72
74540;SHT31;66042;51.090;-115.340;2023-07-20T09:54:17;14.89;58.79
74540;SHT31;66042;51.090;-115.340;2023-07-20T09:56:47;14.80;59.02
74540;SHT31;66042;51.090;-115.340;2023-07-20T09:59:17;14.75;59.02
74540;SHT31;66042;51.090;-115.340;2023-07-20T10:01:45;14.72;58.92
74540;SHT31;66042;51.090;-115.340;2023-07-20T10:04:15;14.71;58.91
74540;SHT31;66042;51.090;-115.340;2023-07-20T10:06:47;14.66;59.05
74540;SHT31;66042;51.090;-115.340;2023-07-20T10:09:21;14.63;59.00
74540;SHT31;66042;51.090;-115.340;2023-07-20T10:11:51;14.60;59.05
74540;SHT31;66042;51.090;-115.340;2023-07-20T10:14:20;14.56;59.33
74540;SHT31;66042;51.090;-115.340;2023-07-20T10:16:49;14.49;59.57
74540;SHT31;66042;51.090;-115.340;2023-07-20T10:22:20;14.39;59.87
74540;SHT31;66042;51.090;-115.340;2023-07-20T10:25:00;14.22;60.47
74540;SHT31;66042;51.090;-115.340;2023-07-20T10:27:30;14.16;60.44
74540;SHT31;66042;51.090;-115.340;2023-07-20T10:29:57;14.15;60.45
74540;SHT31;66042;51.090;-115.340;2023-07-20T10:32:27;14.16;60.34
74540;SHT31;66042;51.090;-115.340;2023-07-20T10:34:56;14.21;60.14
74540;SHT31;66042;51.090;-115.340;2023-07-20T10:40:32;14.20;60.22
74540;SHT31;66042;51.090;-115.340;2023-07-20T10:43:04;14.18;60.22
74540;SHT31;66042;51.090;-115.340;2023-07-20T10:45:34;14.18;60.13
74540;SHT31;66042;51.090;-115.340;2023-07-20T10:48:18;14.15;60.25
74540;SHT31;66042;51.090;-115.340;2023-07-20T10:53:48;14.09;60.44
74540;SHT31;66042;51.090;-115.340;2023-07-20T10:56:36;14.05;60.66
74540;SHT31;66042;51.090;-115.340;2023-07-20T10:59:02;14.00;60.85
74540;SHT31;66042;51.090;-115.340;2023-07-20T11:01:59;13.95;60.91
74540;SHT31;66042;51.090;-115.340;2023-07-20T11:04:41;13.92;60.73
74540;SHT31;66042;51.090;-115.340;2023-07-20T11:07:15;13.90;60.74
74540;SHT31;66042;51.090;-115.340;2023-07-20T11:10:15;13.87;60.75
74540;SHT31;66042;51.090;-115.340;2023-07-20T11:13:15;13.83;60.94
74540;SHT31;66042;51.090;-115.340;2023-07-20T11:18:26;13.71;61.13
74540;SHT31;66042;51.090;-115.340;2023-07-20T11:20:54;13.71;61.25
74540;SHT31;66042;51.090;-115.340;2023-07-20T11:23:22;13.64;61.59
74540;SHT31;66042;51.090;-115.340;2023-07-20T11:25:49;13.56;61.77
74540;SHT31;66042;51.090;-115.340;2023-07-20T11:28:16;13.50;61.75
74540;SHT31;66042;51.090;-115.340;2023-07-20T11:30:43;13.52;61.54
74540;SHT31;66042;51.090;-115.340;2023-07-20T11:33:10;13.55;61.55
74540;SHT31;66042;51.090;-115.340;2023-07-20T11:35:46;13.56;61.55
74540;SHT31;66042;51.090;-115.340;2023-07-20T11:38:18;13.54;61.79
74540;SHT31;66042;51.090;-115.340;2023-07-20T11:40:45;13.45;62.12
74540;SHT31;66042;51.090;-115.340;2023-07-20T11:43:13;13.36;62.21
74540;SHT31;66042;51.090;-115.340;2023-07-20T11:45:40;13.36;61.98
74540;SHT31;66042;51.090;-115.340;2023-07-20T11:48:13;13.37;61.93
74540;SHT31;66042;51.090;-115.340;2023-07-20T11:50:41;13.35;61.96
74540;SHT31;66042;51.090;-115.340;2023-07-20T11:53:09;13.31;62.19
74540;SHT31;66042;51.090;-115.340;2023-07-20T11:55:36;13.25;62.36
74540;SHT31;66042;51.090;-115.340;2023-07-20T11:58:05;13.20;62.54
74540;SHT31;66042;51.090;-115.340;2023-07-20T12:00:35;13.15;62.66
74540;SHT31;66042;51.090;-115.340;2023-07-20T12:03:05;13.15;62.62
74540;SHT31;66042;51.090;-115.340;2023-07-20T12:05:33;13.19;62.55
74540;SHT31;66042;51.090;-115.340;2023-07-20T12:08:00;13.21;62.47
74540;SHT31;66042;51.090;-115.340;2023-07-20T12:10:28;13.22;62.49
74540;SHT31;66042;51.090;-115.340;2023-07-20T12:13:00;13.23;62.34
74540;SHT31;66042;51.090;-115.340;2023-07-20T12:15:32;13.24;62.50
74540;SHT31;66042;51.090;-115.340;2023-07-20T12:18:00;13.18;62.59
74540;SHT31;66042;51.090;-115.340;2023-07-20T12:20:35;13.16;62.59
74540;SHT31;66042;51.090;-115.340;2023-07-20T12:23:04;13.14;62.59
74540;SHT31;66042;51.090;-115.340;2023-07-20T12:25:43;13.08;62.60
74540;SHT31;66042;51.090;-115.340;2023-07-20T12:28:12;13.09;62.54
74540;SHT31;66042;51.090;-115.340;2023-07-20T12:30:45;13.07;62.90
74540;SHT31;66042;51.090;-115.340;2023-07-20T12:33:21;12.92;63.27
74540;SHT31;66042;51.090;-115.340;2023-07-20T12:35:49;12.94;63.05
74540;SHT31;66042;51.090;-115.340;2023-07-20T12:38:18;12.96;63.06
74540;SHT31;66042;51.090;-115.340;2023-07-20T12:40:45;12.99;62.94
74540;SHT31;66042;51.090;-115.340;2023-07-20T12:43:13;13.03;62.90
74540;SHT31;66042;51.090;-115.340;2023-07-20T12:45:40;13.05;62.92
74540;SHT31;66042;51.090;-115.340;2023-07-20T12:48:08;13.05;63.03
74540;SHT31;66042;51.090;-115.340;2023-07-20T12:50:35;12.99;63.24
74540;SHT31;66042;51.090;-115.340;2023-07-20T12:53:02;12.99;63.05
74540;SHT31;66042;51.090;-115.340;2023-07-20T12:55:29;12.99;63.17
74540;SHT31;66042;51.090;-115.340;2023-07-20T12:57:57;13.02;63.07
74540;SHT31;66042;51.090;-115.340;2023-07-20T13:00:24;13.04;63.07
74540;SHT31;66042;51.090;-115.340;2023-07-20T13:02:51;13.06;63.09
74540;SHT31;66042;51.090;-115.340;2023-07-20T13:05:19;13.06;63.26
74540;SHT31;66042;51.090;-115.340;2023-07-20T13:07:45;12.99;63.27
74540;SHT31;66042;51.090;-115.340;2023-07-20T13:10:12;12.96;63.33
74540;SHT31;66042;51.090;-115.340;2023-07-20T13:12:39;12.97;63.20
74540;SHT31;66042;51.090;-115.340;2023-07-20T13:15:07;12.97;63.34
74540;SHT31;66042;51.090;-115.340;2023-07-20T13:17:36;12.93;63.61
74540;SHT31;66042;51.090;-115.340;2023-07-20T13:20:05;12.92;63.47
74540;SHT31;66042;51.090;-115.340;2023-07-20T13:22:35;12.95;63.41
74540;SHT31;66042;51.090;-115.340;2023-07-20T13:25:06;12.96;63.62
74540;SHT31;66042;51.090;-115.340;2023-07-20T13:27:33;12.96;63.58
74540;SHT31;66042;51.090;-115.340;2023-07-20T13:30:02;12.96;63.51
74540;SHT31;66042;51.090;-115.340;2023-07-20T13:32:33;12.98;63.39
74540;SHT31;66042;51.090;-115.340;2023-07-20T13:35:00;13.02;63.29
74540;SHT31;66042;51.090;-115.340;2023-07-20T13:37:27;12.98;63.62
74540;SHT31;66042;51.090;-115.340;2023-07-20T13:39:54;12.97;63.46
74540;SHT31;66042;51.090;-115.340;2023-07-20T13:42:21;12.96;63.79
74540;SHT31;66042;51.090;-115.340;2023-07-20T13:44:48;12.94;63.70
74540;SHT31;66042;51.090;-115.340;2023-07-20T13:47:15;12.97;63.61
74540;SHT31;66042;51.090;-115.340;2023-07-20T13:49:43;12.99;63.46
74540;SHT31;66042;51.090;-115.340;2023-07-20T13:52:10;13.00;63.31
74540;SHT31;66042;51.090;-115.340;2023-07-20T13:54:37;13.03;63.23
74540;SHT31;66042;51.090;-115.340;2023-07-20T13:57:04;13.08;63.06
74540;SHT31;66042;51.090;-115.340;2023-07-20T13:59:31;13.15;63.03
74540;SHT31;66042;51.090;-115.340;2023-07-20T14:01:58;13.18;62.84
74540;SHT31;66042;51.090;-115.340;2023-07-20T14:04:25;13.24;62.66
74540;SHT31;66042;51.090;-115.340;2023-07-20T14:06:52;13.28;62.40
74540;SHT31;66042;51.090;-115.340;2023-07-20T14:09:19;13.32;62.09
74540;SHT31;66042;51.090;-115.340;2023-07-20T14:11:46;13.36;61.90
74540;SHT31;66042;51.090;-115.340;2023-07-20T14:14:13;13.42;61.91
74540;SHT31;66042;51.090;-115.340;2023-07-20T14:16:40;13.46;61.93
74540;SHT31;66042;51.090;-115.340;2023-07-20T14:19:07;13.50;61.94
74540;SHT31;66042;51.090;-115.340;2023-07-20T14:21:34;13.53;61.89
74540;SHT31;66042;51.090;-115.340;2023-07-20T14:24:01;13.56;61.83
74540;SHT31;66042;51.090;-115.340;2023-07-20T14:26:28;13.56;62.08
74540;SHT31;66042;51.090;-115.340;2023-07-20T14:28:55;13.57;61.87
74540;SHT31;66042;51.090;-115.340;2023-07-20T14:31:22;13.61;61.64
74540;SHT31;66042;51.090;-115.340;2023-07-20T14:33:49;13.64;61.49
74540;SHT31;66042;51.090;-115.340;2023-07-20T14:36:16;13.66;61.36
74540;SHT31;66042;51.090;-115.340;2023-07-20T14:38:43;13.69;61.32
74540;SHT31;66042;51.090;-115.340;2023-07-20T14:41:10;13.72;61.36
74540;SHT31;66042;51.090;-115.340;2023-07-20T14:43:37;13.75;61.36
74540;SHT31;66042;51.090;-115.340;2023-07-20T14:46:05;13.81;61.30
74540;SHT31;66042;51.090;-115.340;2023-07-20T14:48:32;13.84;61.19
74540;SHT31;66042;51.090;-115.340;2023-07-20T14:50:59;13.88;61.24
74540;SHT31;66042;51.090;-115.340;2023-07-20T14:53:25;13.92;61.47
74540;SHT31;66042;51.090;-115.340;2023-07-20T14:55:58;13.96;61.53
74540;SHT31;66042;51.090;-115.340;2023-07-20T14:58:26;14.03;61.16
74540;SHT31;66042;51.090;-115.340;2023-07-20T15:00:53;14.10;61.18
74540;SHT31;66042;51.090;-115.340;2023-07-20T15:03:21;14.15;61.46
74540;SHT31;66042;51.090;-115.340;2023-07-20T15:05:47;14.21;61.39
74540;SHT31;66042;51.090;-115.340;2023-07-20T15:08:17;14.26;61.39
74540;SHT31;66042;51.090;-115.340;2023-07-20T15:10:45;14.33;60.99
74540;SHT31;66042;51.090;-115.340;2023-07-20T15:13:15;14.40;60.83
74540;SHT31;66042;51.090;-115.340;2023-07-20T15:15:42;14.47;60.90
74540;SHT31;66042;51.090;-115.340;2023-07-20T15:18:09;14.52;61.15